Time;durP1;ratioP1;P1;durP2;ratioP2;P2;SDS_P1;SDS_P2;PMS_P1;PMS_P2;Temp;Humidity;BMP_temperature;BMP_pressure;BME280_temperature;BME280_humidity;BME280_pressure;Samples;Min_cycle;Max_cycle;Signal;HPM_P1;HPM_P2
2022/11/04 00:02:11;;;;;;;1999.90;999.90;;;8.50;99.90;;;7.07;100.00;100098.56;5019166;28;20037;-84
2022/11/04 00:04:37;;;;;;;1999.90;999.90;;;8.50;99.90;;;7.04;100.00;100088.25;5042504;28;20076;-83
2022/11/04 00:08:22;;;;;;;1999.90;999.90;;;8.50;99.90;;;7.05;100.00;100100.41;5034626;28;20245;-83
2022/11/04 00:09:56;;;;;;;1999.90;999.90;;;8.50;99.90;;;6.99;100.00;100103.28;5052649;28;20033;-84
2022/11/04 00:12:34;;;;;;;1999.90;999.90;;;8.50;99.90;;;6.94;100.00;100103.47;5040949;28;20489;-83
2022/11/04 00:17:18;;;;;;;1999.90;999.90;;;8.40;99.90;;;6.93;100.00;100099.16;5028078;28;20044;-83
2022/11/04 00:17:49;;;;;;;1999.90;999.90;;;8.40;99.90;;;6.96;100.00;100111.25;5044650;28;20033;-82
2022/11/04 00:28:44;;;;;;;1999.90;999.90;;;8.30;99.90;;;6.75;100.00;100105.97;5047014;28;20044;-82
2022/11/04 00:34:09;;;;;;;1999.90;999.90;;;8.20;99.90;;;6.70;100.00;100092.25;4998445;28;20037;-82
2022/11/04 00:36:34;;;;;;;1999.90;999.90;;;8.20;99.90;;;6.74;100.00;100090.38;5046201;28;20047;-82
2022/11/04 00:39:00;;;;;;;1999.90;999.90;;;8.20;99.90;;;6.77;100.00;100072.75;5046840;28;20140;-84
2022/11/04 00:41:36;;;;;;;1999.90;999.90;;;8.30;99.90;;;6.80;100.00;100084.84;5026036;28;20037;-84
2022/11/04 00:44:04;;;;;;;1999.90;999.90;;;8.20;99.90;;;6.78;100.00;100078.81;5058007;28;20051;-85
2022/11/04 00:46:38;;;;;;;1999.90;999.90;;;8.30;99.90;;;6.83;100.00;100078.66;5043208;28;20580;-84
2022/11/04 00:49:04;;;;;;;1999.90;999.90;;;8.30;99.90;;;6.84;100.00;100073.34;5050101;28;20047;-84
2022/11/04 00:51:30;;;;;;;1999.90;999.90;;;8.30;99.90;;;6.87;100.00;100082.81;5060068;28;20033;-85
2022/11/04 00:53:57;;;;;;;1999.90;999.90;;;8.30;99.90;;;6.87;100.00;100088.06;5049324;28;20033;-86
2022/11/04 00:56:42;;;;;;;;;;;;;;;;;;;;;
2022/11/04 00:59:09;;;;;;;1999.90;999.90;;;8.40;99.90;;;6.91;100.00;100074.81;5049586;28;20116;-85
2022/11/04 01:01:35;;;;;;;1999.90;999.90;;;8.40;99.90;;;6.87;100.00;100072.38;5049811;28;20353;-86
2022/11/04 01:04:03;;;;;;;1999.90;999.90;;;8.40;99.90;;;6.86;100.00;100065.44;5047651;28;20056;-86
2022/11/04 01:06:29;;;;;;;1999.90;999.90;;;8.40;99.90;;;6.89;100.00;100068.78;5051710;28;20068;-84
2022/11/04 01:09:07;;;;;;;1999.90;999.90;;;8.30;99.90;;;6.89;100.00;100078.38;5033633;28;20025;-86
2022/11/04 01:11:39;;;;;;;1999.90;999.90;;;8.40;99.90;;;6.83;100.00;100084.75;5032048;28;20018;-85
2022/11/04 01:14:05;;;;;;;1999.90;999.90;;;8.30;99.90;;;6.80;100.00;100078.78;5067026;28;20117;-85
2022/11/04 01:16:31;;;;;;;1999.90;999.90;;;8.30;99.90;;;6.76;100.00;100081.53;5049040;28;20056;-85
2022/11/04 01:18:57;;;;;;;1999.90;999.90;;;8.30;99.90;;;6.81;100.00;100088.34;5050734;28;20051;-85
2022/11/04 01:21:22;;;;;;;1999.90;999.90;;;8.30;99.90;;;6.79;100.00;100080.53;5048296;28;20101;-85
2022/11/04 01:23:48;;;;;;;1999.90;999.90;;;8.20;99.90;;;6.77;100.00;100085.84;5030738;28;20025;-84
2022/11/04 01:26:26;;;;;;;1999.90;999.90;;;8.30;99.90;;;6.76;100.00;100089.38;5048983;28;20037;-84
2022/11/04 01:29:01;;;;;;;1999.90;999.90;;;8.20;99.90;;;6.77;100.00;100079.75;5048168;28;20024;-84
2022/11/04 01:31:30;;;;;;;1999.90;999.90;;;8.20;99.90;;;6.74;100.00;100078.13;5043811;28;20040;-85
2022/11/04 01:34:05;;;;;;;1999.90;999.90;;;8.20;99.90;;;6.75;100.00;100068.50;5031110;28;20394;-85
2022/11/04 01:36:35;;;;;;;1999.90;999.90;;;8.20;99.90;;;6.79;100.00;100070.06;5050282;28;20085;-84
2022/11/04 01:39:09;;;;;;;1999.90;999.90;;;8.20;99.90;;;6.73;100.00;100058.09;5049581;28;20035;-85
2022/11/04 01:41:34;;;;;;;1999.90;999.90;;;8.20;99.90;;;6.73;100.00;100046.78;5048519;28;20029;-85
2022/11/04 01:44:44;;;;;;;1999.90;999.90;;;8.10;99.90;;;6.63;100.00;100037.59;5029891;28;20097;-85
2022/11/04 01:48:00;;;;;;;1999.90;999.90;;;8.40;99.90;;;6.59;100.00;100042.13;5056767;28;20036;-85
2022/11/04 01:50:39;;;;;;;1999.90;999.90;;;8.10;99.90;;;6.57;100.00;100038.72;5023407;28;20136;-85
2022/11/04 01:53:16;;;;;;;1999.90;999.90;;;8.10;99.90;;;6.60;100.00;100042.97;5027494;28;20024;-86
2022/11/04 01:55:56;;;;;;;1999.90;999.90;;;8.00;99.90;;;6.54;100.00;100025.75;5032058;28;20037;-85
2022/11/04 01:58:36;;;;;;;1999.90;999.90;;;8.00;99.90;;;6.55;100.00;100030.94;5041441;28;20444;-84
2022/11/04 02:01:04;;;;;;;1999.90;999.90;;;8.00;99.90;;;6.59;100.00;100023.81;5051496;28;20389;-86
2022/11/04 02:03:55;;;;;;;1999.90;999.90;;;8.10;99.90;;;6.60;100.00;100009.81;5046369;28;20037;-84
2022/11/04 02:06:21;;;;;;;1999.90;999.90;;;8.10;99.90;;;6.52;100.00;99997.06;5063050;28;20059;-85
2022/11/04 02:08:48;;;;;;;1999.90;999.90;;;8.00;99.90;;;6.55;100.00;99996.09;5046384;28;20654;-85
2022/11/04 02:12:48;;;;;;;1999.90;999.90;;;8.10;99.90;;;6.56;100.00;100000.38;5032279;28;20052;-85
2022/11/04 02:14:07;;;;;;;1999.90;999.90;;;8.10;99.90;;;6.56;100.00;99982.06;5054172;28;20037;-85
2022/11/04 02:16:49;;;;;;;1999.90;999.90;;;8.10;99.90;;;6.57;100.00;99989.03;5029748;28;20020;-85
2022/11/04 02:19:54;;;;;;;1999.90;999.90;;;8.10;99.90;;;6.54;100.00;99981.28;5044172;28;20052;-85
2022/11/04 02:22:26;;;;;;;1999.90;999.90;;;8.10;99.90;;;6.55;100.00;99993.47;5056570;28;20029;-85
2022/11/04 02:25:33;;;;;;;1999.90;999.90;;;8.00;99.90;;;6.50;100.00;99990.19;5063964;28;20029;-85
2022/11/04 02:28:33;;;;;;;1999.90;999.90;;;8.00;99.90;;;6.51;100.00;99989.28;5022381;28;20657;-84
2022/11/04 02:31:38;;;;;;;1999.90;999.90;;;8.00;99.90;;;6.42;100.00;99980.03;5026463;28;20124;-84
2022/11/04 02:34:36;;;;;;;1999.90;999.90;;;8.00;99.90;;;6.39;100.00;99979.31;5034350;28;20669;-85
2022/11/04 02:37:40;;;;;;;1999.90;999.90;;;7.90;99.90;;;6.35;100.00;99973.38;5013702;28;20508;-85
2022/11/04 02:40:50;;;;;;;1999.90;999.90;;;7.80;99.90;;;6.27;100.00;99963.22;5043492;28;20037;-84
2022/11/04 02:43:53;;;;;;;1999.90;999.90;;;7.80;99.90;;;6.25;100.00;99972.88;5045025;28;20033;-84
2022/11/04 02:47:12;;;;;;;1999.90;999.90;;;7.80;99.90;;;6.24;100.00;99968.59;5062872;28;20040;-84
2022/11/04 02:50:11;;;;;;;1999.90;999.90;;;7.70;99.90;;;6.21;100.00;99968.69;5006270;28;20095;-83
2022/11/04 02:53:03;;;;;;;1999.90;999.90;;;7.70;99.90;;;6.18;100.00;99957.50;5065029;28;20033;-84
2022/11/04 02:55:45;;;;;;;1999.90;999.90;;;7.70;99.90;;;6.14;100.00;99962.03;5055390;28;20435;-84
2022/11/04 02:58:44;;;;;;;1999.90;999.90;;;7.70;99.90;;;6.12;100.00;99967.31;5038904;28;20057;-84
2022/11/04 03:01:22;;;;;;;1999.90;999.90;;;7.60;99.90;;;6.05;100.00;99962.41;5026932;28;20040;-84
2022/11/04 03:04:14;;;;;;;;;;;;;;;;;;;;;
2022/11/04 03:06:43;;;;;;;1999.90;999.90;;;7.60;99.90;;;6.02;100.00;99967.75;5045481;28;20119;-84
2022/11/04 03:09:17;;;;;;;1999.90;999.90;;;7.50;99.90;;;5.97;100.00;99983.59;5064052;28;20288;-84
2022/11/04 03:11:47;;;;;;;1999.90;999.90;;;7.50;99.90;;;5.97;100.00;99987.97;5048989;28;20028;-85
2022/11/04 03:14:23;;;;;;;1999.90;999.90;;;7.50;99.90;;;5.93;100.00;99988.06;5062721;28;20025;-85
2022/11/04 03:17:04;;;;;;;1999.90;999.90;;;7.50;99.90;;;5.91;100.00;99975.97;5035560;28;20049;-83
2022/11/04 03:19:55;;;;;;;1999.90;999.90;;;7.50;99.90;;;5.95;100.00;99982.81;5031523;28;20060;-84
2022/11/04 03:22:36;;;;;;;1999.90;999.90;;;7.50;99.90;;;5.92;100.00;99985.53;5045678;28;20072;-85
2022/11/04 03:25:07;;;;;;;1999.90;999.90;;;7.40;99.90;;;5.86;100.00;99978.75;5050690;28;20093;-84
2022/11/04 03:28:11;;;;;;;1999.90;999.90;;;7.40;99.90;;;5.88;100.00;99976.94;5034204;28;20044;-85
2022/11/04 03:30:51;;;;;;;1999.90;999.90;;;7.40;99.90;;;5.83;100.00;99971.06;5040973;28;20052;-84
2022/11/04 03:33:24;;;;;;;1999.90;999.90;;;7.40;99.90;;;5.86;100.00;99980.53;5027843;28;20025;-83
2022/11/04 03:36:09;;;;;;;;;;;;;;;;;;;;;
2022/11/04 03:38:37;;;;;;;1999.90;999.90;;;7.40;99.90;;;5.79;100.00;99968.59;5047465;28;20039;-85
2022/11/04 03:41:16;;;;;;;1999.90;999.90;;;7.30;99.90;;;5.79;100.00;99961.63;5029157;28;20029;-85
2022/11/04 03:43:41;;;;;;;1999.90;999.90;;;7.30;99.90;;;5.82;100.00;99971.13;5047619;28;20081;-85
2022/11/04 03:46:08;;;;;;;1999.90;999.90;;;7.30;99.90;;;5.83;100.00;99965.84;5046249;28;20029;-85
2022/11/04 03:48:34;;;;;;;1999.90;999.90;;;7.30;99.90;;;5.75;100.00;99962.66;5045514;28;20021;-85
2022/11/04 03:51:08;;;;;;;1999.90;999.90;;;7.30;99.90;;;5.72;100.00;99960.16;5039780;28;20025;-84
2022/11/04 03:53:36;;;;;;;1999.90;999.90;;;7.30;99.90;;;5.79;100.00;99958.16;5036765;28;20029;-85
2022/11/04 03:56:45;;;;;;;1999.90;999.90;;;7.30;99.90;;;5.78;100.00;99954.69;5043772;28;20021;-85
2022/11/04 03:59:41;;;;;;;1999.90;999.90;;;7.30;99.90;;;5.82;100.00;99966.72;5030382;28;20013;-84
2022/11/04 04:02:25;;;;;;;1999.90;999.90;;;7.30;99.90;;;5.85;100.00;99968.38;5045360;28;20041;-84
2022/11/04 04:05:16;;;;;;;1999.90;999.90;;;7.30;99.90;;;5.77;100.00;99955.63;5039086;28;20040;-85
2022/11/04 04:07:47;;;;;;;1999.90;999.90;;;7.80;99.90;;;5.80;100.00;99955.50;5042427;28;20032;-85
2022/11/04 04:10:54;;;;;;;1999.90;999.90;;;7.30;99.90;;;5.80;100.00;99962.47;5048395;28;20051;-85
2022/11/04 04:13:32;;;;;;;1999.90;999.90;;;7.20;99.90;;;5.75;100.00;99976.56;5022418;28;20049;-84
2022/11/04 04:16:14;;;;;;;1999.90;999.90;;;7.30;99.90;;;5.72;100.00;99975.81;5045609;28;20033;-84
2022/11/04 04:18:54;;;;;;;1999.90;999.90;;;7.30;99.90;;;5.70;100.00;99977.66;5058850;28;20036;-84
2022/11/04 04:21:35;;;;;;;1999.90;999.90;;;7.20;99.90;;;5.69;100.00;99971.56;5037559;28;20026;-83
2022/11/04 04:29:52;;;;;;;1999.90;999.90;;;7.20;99.90;;;5.67;100.00;99967.31;5049684;28;20099;-84
2022/11/04 04:32:26;;;;;;;1999.90;999.90;;;7.10;99.90;;;5.67;100.00;99968.16;5040762;28;20092;-83
2022/11/04 04:35:40;;;;;;;1999.90;999.90;;;7.20;99.90;;;5.72;100.00;99965.38;5031970;28;20029;-84
2022/11/04 04:37:48;;;;;;;1999.90;999.90;;;7.10;99.90;;;5.68;100.00;99954.22;5053006;28;20040;-84
2022/11/04 04:46:07;;;;;;;1999.90;999.90;;;7.20;99.90;;;5.72;100.00;99958.41;5051647;28;20087;-85
2022/11/04 04:48:33;;;;;;;1999.90;999.90;;;7.20;99.90;;;5.72;100.00;99949.72;5048346;28;20481;-85
2022/11/04 04:51:01;;;;;;;1999.90;999.90;;;7.20;99.90;;;5.72;100.00;99954.94;5030609;28;20056;-85
2022/11/04 04:53:31;;;;;;;1999.90;999.90;;;7.30;99.90;;;5.81;100.00;99951.97;5034662;28;20029;-85
2022/11/04 04:55:57;;;;;;;1999.90;999.90;;;7.30;99.90;;;5.82;100.00;99950.22;5048689;28;20048;-84
2022/11/04 04:58:25;;;;;;;1999.90;999.90;;;7.30;99.90;;;5.87;100.00;99946.47;5048666;28;20556;-84
2022/11/04 05:00:51;;;;;;;1999.90;999.90;;;7.40;99.90;;;5.95;100.00;99946.22;5033892;28;20033;-83
2022/11/04 05:03:17;;;;;;;1999.90;999.90;;;7.50;99.90;;;6.06;100.00;99948.41;5047737;28;20028;-83
2022/11/04 05:05:50;;;;;;;1999.90;999.90;;;7.50;99.90;;;6.13;100.00;99960.31;5048339;28;20048;-84
2022/11/04 05:08:16;;;;;;;1999.90;999.90;;;7.60;99.90;;;6.17;100.00;99967.13;5056365;28;20032;-83
2022/11/04 05:10:42;;;;;;;1999.90;999.90;;;7.60;99.90;;;6.23;100.00;99955.56;5026637;28;20029;-85
2022/11/04 05:13:28;;;;;;;1999.90;999.90;;;7.70;99.90;;;6.29;100.00;99964.00;5025797;28;20028;-84
2022/11/04 05:15:56;;;;;;;1999.90;999.90;;;7.70;99.90;;;6.37;100.00;99974.13;5030303;28;20032;-83
2022/11/04 05:18:22;;;;;;;1999.90;999.90;;;7.80;99.90;;;6.39;100.00;99974.94;5045914;28;20029;-84
2022/11/04 05:20:48;;;;;;;1999.90;999.90;;;7.80;99.90;;;6.42;100.00;99977.44;5046719;28;20477;-83
2022/11/04 05:23:14;;;;;;;1999.90;999.90;;;7.90;99.90;;;6.44;100.00;99977.38;5044402;28;20025;-84
2022/11/04 05:25:49;;;;;;;1999.90;999.90;;;7.90;99.90;;;6.48;100.00;99976.31;5041822;28;20025;-84
2022/11/04 05:28:15;;;;;;;1999.90;999.90;;;7.90;99.90;;;6.57;100.00;99975.94;5046380;28;20041;-84
2022/11/04 05:31:15;;;;;;;1999.90;999.90;;;7.90;99.90;;;6.55;100.00;99973.38;5048330;28;20055;-84
2022/11/04 05:33:48;;;;;;;1999.90;999.90;;;8.00;99.90;;;6.61;100.00;99972.28;5048898;28;20090;-82
2022/11/04 05:36:17;;;;;;;1999.90;999.90;;;8.00;99.90;;;6.57;100.00;99958.47;5058729;28;20082;-84
2022/11/04 05:38:43;;;;;;;1999.90;999.90;;;8.00;99.90;;;6.55;100.00;99956.84;5027381;28;20095;-85
2022/11/04 05:41:24;;;;;;;1999.90;999.90;;;8.00;99.90;;;6.53;100.00;99943.81;5040829;28;20040;-83
2022/11/04 05:43:58;;;;;;;1999.90;999.90;;;8.00;99.90;;;6.56;100.00;99945.47;5039070;28;20082;-84
2022/11/04 05:46:27;;;;;;;1999.90;999.90;;;8.00;99.90;;;6.52;100.00;99950.00;5058012;28;20032;-85
2022/11/04 05:49:05;;;;;;;1999.90;999.90;;;8.00;99.90;;;6.55;100.00;99951.63;5041900;28;20037;-85
2022/11/04 05:51:32;;;;;;;1999.90;999.90;;;8.00;99.90;;;6.60;100.00;99954.88;5056353;28;20025;-83
2022/11/04 05:54:05;;;;;;;1999.90;999.90;;;8.00;99.90;;;6.54;100.00;99952.53;5044031;28;20025;-84
2022/11/04 05:56:33;;;;;;;1999.90;999.90;;;8.00;99.90;;;6.50;100.00;99961.41;5032849;28;20278;-85
2022/11/04 05:58:59;;;;;;;1999.90;999.90;;;8.00;99.90;;;6.51;100.00;99960.50;5046634;28;20493;-84
2022/11/04 06:01:40;;;;;;;1999.90;999.90;;;8.00;99.90;;;6.51;100.00;99963.13;5046646;28;20040;-83
2022/11/04 06:04:17;;;;;;;1999.90;999.90;;;8.00;99.90;;;6.54;100.00;99968.22;5039025;28;20029;-85
2022/11/04 06:06:43;;;;;;;1999.90;999.90;;;8.00;99.90;;;6.53;100.00;99971.75;5038359;28;20033;-85
2022/11/04 06:09:15;;;;;;;1999.90;999.90;;;8.00;99.90;;;6.47;100.00;99972.00;5049375;28;20028;-83
2022/11/04 06:11:48;;;;;;;1999.90;999.90;;;8.00;99.90;;;6.50;100.00;99971.88;5058055;28;20549;-86
2022/11/04 06:14:25;;;;;;;1999.90;999.90;;;8.00;99.90;;;6.53;100.00;99985.69;5047557;28;20032;-83
2022/11/04 06:17:01;;;;;;;1999.90;999.90;;;8.00;99.90;;;6.51;100.00;99987.50;5056672;28;20397;-84
2022/11/04 06:19:26;;;;;;;1999.90;999.90;;;8.00;99.90;;;6.50;100.00;99992.78;5042607;28;20029;-82
2022/11/04 06:21:53;;;;;;;1999.90;999.90;;;8.00;99.90;;;6.55;100.00;99993.47;5113688;22;20559;-83
2022/11/04 06:24:19;;;;;;;1999.90;999.90;;;8.00;99.90;;;6.58;100.00;100001.19;5044870;28;20039;-82
2022/11/04 06:26:45;;;;;;;1999.90;999.90;;;8.00;99.90;;;6.56;100.00;100003.00;5038636;28;20030;-84
2022/11/04 06:29:15;;;;;;;1999.90;999.90;;;8.00;99.90;;;6.58;100.00;100002.03;5058734;28;20029;-83
2022/11/04 06:31:43;;;;;;;1999.90;999.90;;;8.00;99.90;;;6.60;100.00;100012.44;5042256;28;20024;-83
2022/11/04 06:34:10;;;;;;;1999.90;999.90;;;8.00;99.90;;;6.61;100.00;100022.00;5059259;28;20032;-83
2022/11/04 06:36:35;;;;;;;1999.90;999.90;;;8.00;99.90;;;6.60;100.00;100029.91;5054268;28;20045;-83
2022/11/04 06:39:11;;;;;;;1999.90;999.90;;;8.00;99.90;;;6.55;100.00;100033.53;5041040;28;20037;-83
2022/11/04 06:41:37;;;;;;;1999.90;999.90;;;8.00;99.90;;;6.58;100.00;100041.25;5039958;28;20027;-83
2022/11/04 06:44:03;;;;;;;1999.90;999.90;;;8.10;99.90;;;6.60;100.00;100041.19;5055237;28;20040;-84
2022/11/04 06:46:40;;;;;;;1999.90;999.90;;;8.10;99.90;;;6.67;100.00;100055.72;5035757;28;20120;-83
2022/11/04 06:49:16;;;;;;;1999.90;999.90;;;8.10;99.90;;;6.74;100.00;100057.19;5058702;28;20029;-83
2022/11/04 06:51:42;;;;;;;1999.90;999.90;;;8.10;99.90;;;6.73;100.00;100062.47;5041757;28;20115;-83
2022/11/04 06:54:09;;;;;;;1999.90;999.90;;;8.10;99.90;;;6.74;100.00;100057.19;5046440;28;20032;-83
2022/11/04 06:56:35;;;;;;;1999.90;999.90;;;8.20;99.90;;;6.75;100.00;100058.88;5071205;28;20508;-83
2022/11/04 06:59:09;;;;;;;1999.90;999.90;;;8.20;99.90;;;6.77;100.00;100054.44;5051764;28;20058;-84
2022/11/04 07:01:36;;;;;;;1999.90;999.90;;;8.20;99.90;;;6.78;100.00;100064.00;5034245;28;20028;-84
2022/11/04 07:04:08;;;;;;;1999.90;999.90;;;8.20;99.90;;;6.77;100.00;100071.91;5033275;28;20125;-83
2022/11/04 07:06:36;;;;;;;1999.90;999.90;;;8.20;99.90;;;6.72;100.00;100074.72;5037350;28;20028;-84
2022/11/04 07:09:02;;;;;;;1999.90;999.90;;;8.20;99.90;;;6.75;100.00;100069.34;5040697;28;20086;-84
2022/11/04 07:11:31;;;;;;;1999.90;999.90;;;8.20;99.90;;;6.83;100.00;100066.44;5040587;28;20032;-83
2022/11/04 07:14:07;;;;;;;1999.90;999.90;;;8.20;99.90;;;6.83;100.00;100071.66;5056569;28;20115;-84
2022/11/04 07:16:33;;;;;;;;;;;8.20;99.90;;;6.83;100.00;100071.66;5053114;28;20028;-83
2022/11/04 07:18:59;;;;;;;1999.90;999.90;;;8.20;99.90;;;6.79;100.00;100077.94;5037535;28;19909;-83
2022/11/04 07:21:25;;;;;;;1999.90;999.90;;;8.20;99.90;;;6.80;100.00;100084.00;5040067;28;20021;-84
2022/11/04 07:23:56;;;;;;;1999.90;999.90;;;8.30;99.90;;;6.78;100.00;100079.69;5053692;28;20032;-83
2022/11/04 07:26:22;;;;;;;1999.90;999.90;;;8.30;99.90;;;6.84;100.00;100085.59;5055858;28;20020;-83
2022/11/04 07:28:48;;;;;;;1999.90;999.90;;;8.30;99.90;;;6.81;100.00;100081.34;5057882;28;20078;-84
2022/11/04 07:31:17;;;;;;;1999.90;999.90;;;8.20;99.90;;;6.83;100.00;100074.28;5034468;28;20473;-83
2022/11/04 07:33:50;;;;;;;1999.90;999.90;;;8.30;99.90;;;6.87;100.00;100069.75;5038617;28;20059;-84
2022/11/04 07:36:17;;;;;;;1999.90;999.90;;;8.30;99.90;;;6.91;100.00;100066.09;5050444;28;20060;-83
2022/11/04 07:38:44;;;;;;;1999.90;999.90;;;8.30;99.90;;;6.96;100.00;100064.16;5043506;28;20035;-83
2022/11/04 07:41:18;;;;;;;1999.90;999.90;;;8.40;99.90;;;7.05;100.00;100052.44;5067487;28;20021;-83
2022/11/04 07:43:57;;;;;;;1999.90;999.90;;;8.40;99.90;;;7.10;100.00;100050.47;5056242;28;20025;-83
2022/11/04 07:46:26;;;;;;;1999.90;999.90;;;8.50;99.90;;;7.13;100.00;100050.34;5039948;28;20473;-83
2022/11/04 07:48:52;;;;;;;1999.90;999.90;;;8.50;99.90;;;7.15;100.00;100054.59;5040101;28;20424;-85
2022/11/04 07:51:31;;;;;;;1999.90;999.90;;;8.50;99.90;;;7.22;100.00;100051.72;5036811;28;20035;-83
2022/11/04 07:53:57;;;;;;;1999.90;999.90;;;8.50;99.90;;;7.28;100.00;100067.13;5041437;28;20029;-83
2022/11/04 07:56:29;;;;;;;1999.90;999.90;;;8.60;99.90;;;7.35;100.00;100065.97;5052780;28;20110;-84
2022/11/04 07:58:54;;;;;;;1999.90;999.90;;;8.70;99.90;;;7.47;100.00;100070.66;5035781;28;20032;-83
2022/11/04 08:01:22;;;;;;;1999.90;999.90;;;8.70;99.90;;;7.58;100.00;100073.66;5031828;28;20024;-83
2022/11/04 08:03:49;;;;;;;1999.90;999.90;;;8.80;99.90;;;7.60;100.00;100079.69;5050105;28;20036;-84
2022/11/04 08:06:20;;;;;;;1999.90;999.90;;;8.90;99.90;;;7.52;100.00;100076.56;5052064;28;20036;-84
2022/11/04 08:08:47;;;;;;;1999.90;999.90;;;8.80;99.90;;;7.43;100.00;100066.50;5054965;28;20035;-84
2022/11/04 08:11:24;;;;;;;1999.90;999.90;;;8.80;99.90;;;7.48;100.00;100064.50;5041708;28;20047;-84
2022/11/04 08:13:50;;;;;;;1999.90;999.90;;;8.80;99.90;;;7.53;100.00;100073.00;5034632;28;20025;-84
2022/11/04 08:16:19;;;;;;;1999.90;999.90;;;8.80;99.90;;;7.44;100.00;100072.56;5045694;28;20078;-83
2022/11/04 08:18:47;;;;;;;1999.90;999.90;;;8.80;99.90;;;7.45;100.00;100069.91;5054862;28;20029;-83
2022/11/04 08:21:17;;;;;;;1999.90;999.90;;;8.80;99.90;;;7.43;100.00;100074.34;5027779;28;20028;-84
2022/11/04 08:23:44;;;;;;;1999.90;999.90;;;8.80;99.90;;;7.46;100.00;100071.56;5032400;28;20083;-84
2022/11/04 08:26:22;;;;;;;1999.90;999.90;;;8.90;99.90;;;7.53;100.00;100080.84;5051420;28;20033;-83
2022/11/04 08:28:50;;;;;;;1999.90;999.90;;;8.90;99.90;;;7.66;100.00;100078.53;5037574;28;20112;-83
2022/11/04 08:31:30;;;;;;;1999.90;999.90;;;8.90;99.90;;;7.78;100.00;100075.38;5055369;22;20037;-83
2022/11/04 08:33:56;;;;;;;1999.90;999.90;;;9.00;99.90;;;7.91;100.00;100066.97;5013355;28;20167;-83
2022/11/04 08:36:35;;;;;;;1999.90;999.90;;;9.10;99.90;;;7.98;100.00;100063.97;5024462;28;20046;-82
2022/11/04 08:39:10;;;;;;;1999.90;999.90;;;9.20;99.90;;;8.05;100.00;100058.44;4998935;28;20028;-83
2022/11/04 08:41:37;;;;;;;1999.90;999.90;;;9.30;99.90;;;8.01;100.00;100066.47;5009325;28;20025;-84
2022/11/04 08:44:04;;;;;;;1999.90;999.90;;;9.30;99.90;;;8.05;100.00;100063.69;5024957;28;20021;-83
2022/11/04 08:46:55;;;;;;;1999.90;999.90;;;9.30;99.90;;;8.09;100.00;100071.34;5036965;28;20040;-83
2022/11/04 08:49:23;;;;;;;1999.90;999.90;;;9.40;99.90;;;8.02;100.00;100070.78;5019396;28;20106;-83
2022/11/04 08:51:55;;;;;;;1999.90;999.90;;;9.30;99.90;;;8.04;100.00;100075.97;5040961;28;20116;-85
2022/11/04 08:54:24;;;;;;;1999.90;999.90;;;9.40;99.90;;;8.12;100.00;100083.44;5023943;28;20055;-83
2022/11/04 08:56:50;;;;;;;1999.90;999.90;;;9.40;99.90;;;8.21;100.00;100085.66;5042824;28;20036;-84
2022/11/04 08:59:16;;;;;;;1999.90;999.90;;;9.40;99.90;;;8.24;100.00;100082.88;5038775;28;20124;-84
2022/11/04 09:01:47;;;;;;;1999.90;999.90;;;9.40;99.90;;;8.27;100.00;100088.00;5045578;28;20032;-84
2022/11/04 09:04:13;;;;;;;1999.90;999.90;;;9.50;99.90;;;8.24;100.00;100082.03;5054172;28;20477;-84
2022/11/04 09:06:42;;;;;;;1999.90;999.90;;;9.50;99.90;;;8.20;100.00;100083.94;5058688;28;20116;-84
2022/11/04 09:09:17;;;;;;;1999.90;999.90;;;9.50;99.90;;;8.18;100.00;100078.75;5020003;28;20077;-85
2022/11/04 09:11:49;;;;;;;1999.90;999.90;;;;;;;8.17;100.00;100078.84;5024461;28;20051;-84
2022/11/04 09:14:22;;;;;;;1999.90;999.90;;;9.50;99.90;;;8.19;100.00;100092.75;5057160;28;20032;-83
2022/11/04 09:16:48;;;;;;;1999.90;999.90;;;9.50;99.90;;;8.20;100.00;100090.03;5044981;28;20032;-85
2022/11/04 09:19:27;;;;;;;1999.90;999.90;;;9.50;99.90;;;8.28;100.00;100097.56;5043279;28;20064;-83
2022/11/04 09:24:48;;;;;;;1999.90;999.90;;;9.60;99.90;;;8.48;100.00;100095.78;5034952;28;20795;-86
2022/11/04 09:27:17;;;;;;;1999.90;999.90;;;;;;;8.56;100.00;100097.13;5051193;28;20040;-86
2022/11/04 09:29:49;;;;;;;1999.90;999.90;;;9.70;99.90;;;8.59;100.00;100096.97;5059057;28;20079;-84
2022/11/04 09:32:20;;;;;;;1999.90;999.90;;;9.80;99.90;;;8.65;100.00;100103.69;5026074;28;20036;-84
2022/11/04 09:34:55;;;;;;;1999.90;999.90;;;9.90;99.90;;;8.74;100.00;100103.25;5024406;28;20561;-84
2022/11/04 09:37:50;;;;;;;1999.90;999.90;;;9.90;99.90;;;8.78;100.00;100104.78;5060610;28;20029;-85
2022/11/04 09:40:28;;;;;;;1999.90;999.90;;;;;;;8.82;100.00;100113.38;5056022;28;20279;-87
2022/11/04 09:43:48;;;;;;;1999.90;999.90;;;10.00;99.90;;;8.82;100.00;100106.34;5040332;28;20040;-87
2022/11/04 09:46:20;;;;;;;1999.90;999.90;;;10.00;99.90;;;8.89;100.00;100114.78;5027098;28;20041;-86
2022/11/04 09:49:01;;;;;;;1999.90;999.90;;;10.10;99.90;;;8.96;100.00;100105.69;5045563;28;20041;-84
2022/11/04 09:51:28;;;;;;;1999.90;999.90;;;10.20;99.90;;;8.98;100.00;100108.22;5042371;28;20029;-85
2022/11/04 09:54:22;;;;;;;1999.90;999.90;;;10.20;99.90;;;9.01;100.00;100114.16;5077942;28;20057;-86
2022/11/04 09:56:51;;;;;;;1999.90;999.90;;;10.20;99.90;;;9.13;100.00;100117.94;5043543;28;20515;-85
2022/11/04 09:59:32;;;;;;;1999.90;999.90;;;10.30;99.90;;;9.26;100.00;100114.72;5048272;28;20060;-83
2022/11/04 10:02:44;;;;;;;1999.90;999.90;;;10.40;99.90;;;9.33;100.00;100114.34;5020511;28;20040;-85
2022/11/04 10:05:38;;;;;;;1999.90;999.90;;;10.50;99.90;;;9.44;100.00;100116.41;5029870;28;20485;-85
2022/11/04 10:08:50;;;;;;;1999.90;999.90;;;10.60;99.90;;;9.47;100.00;100110.97;5054955;28;20041;-86
2022/11/04 10:11:37;;;;;;;1999.90;999.90;;;10.60;99.90;;;9.53;100.00;100115.91;5054189;28;20412;-84
2022/11/04 10:14:18;;;;;;;1999.90;999.90;;;10.70;99.90;;;9.64;100.00;100112.75;5045787;28;20444;-85
2022/11/04 10:17:28;;;;;;;1999.90;999.90;;;10.80;99.90;;;9.84;100.00;100109.88;5073497;28;20051;-85
2022/11/04 10:21:06;;;;;;;1999.90;999.90;;;11.00;99.90;;;10.20;100.00;100100.94;5041924;28;20116;-85
2022/11/04 10:23:58;;;;;;;1999.90;999.90;;;11.30;99.90;;;10.54;100.00;100103.50;5008794;28;20050;-83
2022/11/04 10:26:58;;;;;;;1999.90;999.90;;;11.50;99.90;;;10.73;100.00;100101.53;5030441;28;20528;-83
2022/11/04 10:30:05;;;;;;;1999.90;999.90;;;11.70;99.90;;;10.87;100.00;100091.06;5079162;28;20040;-83
2022/11/04 10:32:58;;;;;;;1999.90;999.90;;;11.90;99.90;;;11.11;100.00;100093.19;5049062;23;20045;-84
2022/11/04 10:35:57;;;;;;;1999.90;999.90;;;12.10;99.90;;;11.34;100.00;100088.34;5026156;28;20488;-83
2022/11/04 10:38:51;;;;;;;1999.90;999.90;;;12.30;99.90;;;11.54;100.00;100088.00;5039659;28;20043;-83
2022/11/04 10:41:49;;;;;;;1999.90;999.90;;;12.40;99.90;;;11.65;100.00;100082.91;5042489;28;20055;-84
2022/11/04 10:44:36;;;;;;;1999.90;999.90;;;12.50;99.90;;;11.60;100.00;100077.06;5030315;28;20505;-84
2022/11/04 10:47:52;;;;;;;1999.90;999.90;;;12.50;99.90;;;11.40;100.00;100066.88;5058187;28;20036;-84
2022/11/04 10:53:38;;;;;;;1999.90;999.90;;;12.60;99.90;;;11.68;100.00;100061.63;5075085;23;20080;-87
2022/11/04 11:01:18;;;;;;;1999.90;999.90;;;12.80;99.90;;;11.85;100.00;100060.56;5044092;28;20028;-87
2022/11/04 11:05:00;;;;;;;1999.90;999.90;;;12.80;99.90;;;11.94;100.00;100061.81;4962962;28;20035;-87
2022/11/04 11:08:29;;;;;;;1999.90;999.90;;;12.90;99.90;;;12.02;100.00;100063.97;4925992;29;20040;-88